Time;durP1;ratioP1;P1;durP2;ratioP2;P2;SDS_P1;SDS_P2;PMS_P1;PMS_P2;Temp;Humidity;BMP_temperature;BMP_pressure;BME280_temperature;BME280_humidity;BME280_pressure;Samples;Min_cycle;Max_cycle;Signal;HPM_P1;HPM_P2
2021/12/25 00:02:17;;;;;;;0.60;0.50;;;18.40;39.30;;;;;;5096592;28;20260;-85
2021/12/25 00:04:42;;;;;;;0.68;0.50;;;18.40;39.20;;;;;;5096668;28;20167;-84
2021/12/25 00:07:08;;;;;;;0.60;0.60;;;18.40;39.20;;;;;;5096421;28;20200;-84
2021/12/25 00:09:35;;;;;;;0.68;0.47;;;18.50;39.20;;;;;;5096601;28;20516;-84
2021/12/25 00:12:02;;;;;;;0.40;0.40;;;18.40;39.30;;;;;;5096179;28;20164;-84
2021/12/25 00:14:29;;;;;;;0.60;0.50;;;18.40;39.20;;;;;;5096267;28;20159;-84
2021/12/25 00:16:58;;;;;;;0.65;0.50;;;18.40;39.20;;;;;;5095986;28;20152;-85
2021/12/25 00:19:24;;;;;;;0.50;0.50;;;18.40;38.90;;;;;;5080028;28;20172;-84
2021/12/25 00:21:50;;;;;;;0.40;0.40;;;18.40;39.20;;;;;;5096480;28;20152;-84
2021/12/25 00:24:16;;;;;;;0.70;0.70;;;18.40;39.30;;;;;;5096343;28;20687;-84
2021/12/25 00:26:55;;;;;;;0.95;0.55;;;18.40;39.20;;;;;;5096196;28;20191;-84
2021/12/25 00:32:32;;;;;;;0.50;0.50;;;18.50;39.20;;;;;;5098515;28;20618;-84
2021/12/25 00:34:50;;;;;;;0.50;0.50;;;18.40;39.40;;;;;;5099016;28;20251;-85
2021/12/25 00:37:15;;;;;;;0.50;0.50;;;18.30;39.10;;;;;;5096317;28;20156;-84
2021/12/25 00:39:43;;;;;;;0.73;0.73;;;18.30;39.30;;;;;;5096142;28;20164;-85
2021/12/25 00:42:09;;;;;;;0.60;0.60;;;18.40;39.50;;;;;;5096803;28;20225;-84
2021/12/25 00:44:34;;;;;;;0.70;0.43;;;18.30;39.40;;;;;;5095707;27;20618;-85
2021/12/25 00:47:02;;;;;;;0.50;0.47;;;18.30;39.30;;;;;;5095815;28;20219;-84
2021/12/25 00:49:29;;;;;;;0.60;0.60;;;18.30;39.30;;;;;;5095666;28;20160;-85
2021/12/25 00:51:55;;;;;;;0.50;0.50;;;18.30;39.20;;;;;;5097114;28;20633;-84
2021/12/25 00:54:20;;;;;;;0.68;0.60;;;18.40;39.30;;;;;;5099750;28;20160;-85
2021/12/25 00:56:47;;;;;;;0.68;0.50;;;18.30;39.30;;;;;;5099908;28;20214;-85
2021/12/25 00:59:13;;;;;;;0.52;0.50;;;18.30;39.30;;;;;;5100327;28;20152;-84
2021/12/25 01:01:39;;;;;;;0.52;0.52;;;18.20;39.20;;;;;;5099583;28;20572;-84
2021/12/25 01:04:05;;;;;;;0.50;0.50;;;18.30;39.20;;;;;;5099538;28;20622;-84
2021/12/25 01:06:31;;;;;;;0.90;0.60;;;18.30;39.30;;;;;;5099259;28;20182;-84
2021/12/25 01:08:57;;;;;;;0.57;0.40;;;18.30;39.20;;;;;;5099987;28;20627;-85
2021/12/25 01:11:26;;;;;;;0.45;0.45;;;18.40;39.20;;;;;;5099445;28;20621;-84
2021/12/25 01:14:03;;;;;;;0.40;0.40;;;18.30;39.20;;;;;;5099504;28;20168;-84
2021/12/25 01:17:02;;;;;;;1.42;0.60;;;18.30;39.30;;;;;;5101407;28;20178;-85
2021/12/25 01:19:39;;;;;;;0.55;0.55;;;18.30;39.30;;;;;;5102329;28;20697;-85
2021/12/25 01:30:18;;;;;;;0.50;0.50;;;18.30;39.30;;;;;;5100925;28;20148;-85
2021/12/25 01:35:56;;;;;;;0.70;0.70;;;18.30;39.30;;;;;;5100903;28;20270;-85
2021/12/25 01:38:36;;;;;;;0.88;0.63;;;18.30;39.30;;;;;;5101512;28;20531;-85
2021/12/25 01:41:17;;;;;;;1.08;0.63;;;18.40;39.20;;;;;;5101433;28;20538;-85
2021/12/25 01:49:05;;;;;;;0.60;0.50;;;18.30;39.20;;;;;;5121140;27;20617;-85
2021/12/25 01:51:31;;;;;;;0.52;0.52;;;18.20;39.50;;;;;;5119004;27;20178;-85
2021/12/25 01:53:58;;;;;;;0.47;0.47;;;18.30;39.40;;;;;;5101975;27;20167;-85
2021/12/25 01:56:23;;;;;;;0.40;0.40;;;18.30;39.30;;;;;;5118748;27;20163;-85
2021/12/25 01:58:49;;;;;;;0.57;0.57;;;18.20;39.30;;;;;;5118610;27;20609;-85
2021/12/25 02:01:15;;;;;;;0.40;0.40;;;18.20;39.50;;;;;;5101464;27;20205;-84
2021/12/25 02:03:41;;;;;;;0.50;0.50;;;18.10;39.40;;;;;;5117612;27;20212;-85
2021/12/25 02:06:09;;;;;;;0.57;0.50;;;18.20;39.40;;;;;;5118613;27;20151;-85
2021/12/25 02:08:38;;;;;;;1.10;0.77;;;18.20;39.30;;;;;;5101370;27;20191;-85
2021/12/25 02:11:05;;;;;;;0.55;0.55;;;18.30;39.20;;;;;;5118443;27;20246;-85
2021/12/25 02:13:31;;;;;;;0.50;0.50;;;18.30;39.30;;;;;;5118438;27;20147;-85
2021/12/25 02:15:58;;;;;;;0.65;0.63;;;18.30;39.30;;;;;;5118702;27;20167;-85
2021/12/25 02:18:31;;;;;;;0.55;0.47;;;18.20;39.30;;;;;;5118897;27;20538;-85
2021/12/25 02:21:10;;;;;;;0.73;0.60;;;18.20;39.30;;;;;;5102067;27;20621;-85
2021/12/25 02:23:37;;;;;;;0.60;0.60;;;18.10;39.40;;;;;;5120129;27;20625;-85
2021/12/25 02:26:03;;;;;;;0.60;0.60;;;18.20;39.60;;;;;;5118631;27;20203;-85
2021/12/25 02:28:28;;;;;;;0.70;0.55;;;18.10;39.40;;;;;;5118276;27;20187;-85
2021/12/25 02:30:57;;;;;;;0.90;0.70;;;18.20;39.30;;;;;;5101826;27;20170;-85
2021/12/25 02:33:24;;;;;;;0.65;0.50;;;18.20;39.40;;;;;;5118623;27;20171;-85
2021/12/25 02:35:50;;;;;;;0.60;0.52;;;18.30;39.30;;;;;;5118224;27;20160;-85
2021/12/25 02:38:16;;;;;;;0.50;0.50;;;18.10;39.50;;;;;;5118463;27;20151;-85
2021/12/25 02:40:42;;;;;;;0.60;0.60;;;18.10;39.40;;;;;;5118271;27;20232;-85
2021/12/25 02:43:08;;;;;;;1.08;0.70;;;18.10;39.60;;;;;;5117816;27;20688;-85
2021/12/25 02:45:34;;;;;;;0.50;0.50;;;18.10;39.40;;;;;;5117646;27;20230;-85
2021/12/25 02:48:08;;;;;;;0.73;0.60;;;18.10;39.30;;;;;;5100829;27;20195;-85
2021/12/25 02:50:38;;;;;;;0.40;0.40;;;18.10;39.50;;;;;;5100668;27;20171;-85
2021/12/25 02:53:04;;;;;;;1.05;0.50;;;18.20;39.40;;;;;;5117778;27;20621;-85
2021/12/25 02:55:31;;;;;;;0.55;0.55;;;18.10;39.60;;;;;;5101395;27;20258;-84
2021/12/25 02:57:57;;;;;;;0.50;0.50;;;18.10;39.50;;;;;;5117736;27;20159;-85
2021/12/25 03:00:29;;;;;;;1.08;0.50;;;18.10;39.40;;;;;;5117595;27;20163;-85
2021/12/25 03:02:55;;;;;;;0.60;0.60;;;18.10;39.40;;;;;;5117826;27;20645;-85
2021/12/25 03:05:24;;;;;;;0.40;0.40;;;18.10;39.40;;;;;;5100444;27;20183;-85
2021/12/25 03:07:50;;;;;;;0.50;0.50;;;18.10;39.30;;;;;;5100510;27;20664;-84
2021/12/25 03:10:16;;;;;;;0.70;0.60;;;18.10;39.30;;;;;;5100876;27;20167;-85
2021/12/25 03:12:53;;;;;;;1.17;0.50;;;18.10;39.30;;;;;;5117970;27;20569;-85
2021/12/25 03:15:28;;;;;;;0.50;0.50;;;18.20;39.30;;;;;;5118650;27;20143;-85
2021/12/25 03:17:56;;;;;;;0.60;0.50;;;18.10;39.20;;;;;;5118985;27;20152;-85
2021/12/25 03:20:23;;;;;;;0.60;0.40;;;18.10;39.40;;;;;;5117342;27;20171;-84
2021/12/25 03:22:50;;;;;;;0.50;0.50;;;18.10;39.20;;;;;;5100617;27;20170;-85
2021/12/25 03:25:16;;;;;;;0.50;0.50;;;18.10;39.20;;;;;;5100682;27;20242;-84
2021/12/25 03:27:43;;;;;;;0.50;0.50;;;18.10;40.10;;;;;;5117284;27;20740;-85
2021/12/25 03:30:09;;;;;;;0.80;0.52;;;18.10;39.20;;;;;;5117645;27;20151;-85
2021/12/25 03:32:35;;;;;;;0.95;0.60;;;18.10;39.30;;;;;;5117466;27;20155;-85
2021/12/25 03:35:02;;;;;;;0.60;0.60;;;18.10;39.50;;;;;;5100316;27;20164;-84
2021/12/25 03:37:29;;;;;;;0.55;0.55;;;18.00;39.40;;;;;;5101036;27;20234;-84
2021/12/25 03:39:54;;;;;;;0.50;0.50;;;18.00;39.50;;;;;;5117241;27;20155;-85
2021/12/25 03:42:20;;;;;;;0.63;0.63;;;18.00;39.60;;;;;;5117457;27;20185;-85
2021/12/25 03:44:46;;;;;;;0.40;0.40;;;18.10;39.40;;;;;;5114070;28;20212;-84
2021/12/25 03:47:23;;;;;;;0.70;0.70;;;18.10;39.40;;;;;;5097041;28;20191;-85
2021/12/25 03:57:57;;;;;;;0.50;0.50;;;18.10;39.30;;;;;;5098711;28;20514;-84
2021/12/25 04:00:29;;;;;;;0.52;0.52;;;18.00;39.40;;;;;;5097647;28;20164;-85
2021/12/25 04:03:02;;;;;;;0.50;0.50;;;18.10;39.50;;;;;;5114844;28;20169;-85
2021/12/25 04:05:33;;;;;;;0.98;0.70;;;18.10;39.30;;;;;;5096612;28;20168;-85
2021/12/25 04:08:16;;;;;;;0.50;0.40;;;18.00;39.30;;;;;;5097035;28;20191;-85
2021/12/25 04:10:45;;;;;;;0.50;0.50;;;18.00;39.60;;;;;;5098760;28;20677;-84
2021/12/25 04:13:13;;;;;;;0.60;0.57;;;18.00;39.50;;;;;;5096467;28;20209;-84
2021/12/25 04:15:39;;;;;;;0.70;0.43;;;18.00;39.60;;;;;;5096637;28;20160;-85
2021/12/25 04:18:07;;;;;;;0.50;0.50;;;18.00;39.40;;;;;;5096592;28;20156;-85
2021/12/25 04:20:32;;;;;;;0.60;0.60;;;18.00;39.30;;;;;;5096330;28;20168;-84
2021/12/25 04:23:05;;;;;;;0.50;0.50;;;18.00;39.50;;;;;;5096270;28;20162;-84
2021/12/25 04:25:33;;;;;;;0.65;0.52;;;17.90;39.50;;;;;;5097670;28;20156;-85
2021/12/25 04:28:05;;;;;;;0.60;0.60;;;18.00;39.50;;;;;;5099414;28;20221;-85
2021/12/25 04:30:42;;;;;;;0.55;0.50;;;17.90;39.40;;;;;;5101277;28;20152;-85
2021/12/25 04:42:35;;;;;;;0.50;0.45;;;18.00;39.20;;;;;;5101998;28;20610;-85
2021/12/25 05:03:00;;;;;;;0.80;0.50;;;17.90;39.40;;;;;;5101527;28;20149;-84
2021/12/25 05:05:26;;;;;;;0.60;0.50;;;17.90;39.40;;;;;;5101989;28;20259;-84
2021/12/25 05:07:52;;;;;;;0.50;0.50;;;17.90;39.40;;;;;;5100193;28;20269;-85
2021/12/25 05:10:18;;;;;;;0.70;0.60;;;17.90;39.50;;;;;;5100031;28;20157;-84
2021/12/25 05:12:44;;;;;;;0.40;0.40;;;17.90;39.30;;;;;;5099414;28;20182;-85
2021/12/25 05:15:11;;;;;;;0.60;0.47;;;18.00;39.60;;;;;;5118075;28;20160;-85
2021/12/25 05:17:36;;;;;;;0.45;0.40;;;17.90;39.40;;;;;;5099872;28;20163;-85
2021/12/25 05:20:03;;;;;;;0.35;0.35;;;17.90;39.30;;;;;;5099870;28;20152;-85
2021/12/25 05:22:34;;;;;;;0.60;0.60;;;17.90;39.40;;;;;;5100096;28;20537;-84
2021/12/25 05:25:00;;;;;;;0.60;0.50;;;17.90;39.50;;;;;;5099418;28;20172;-84
2021/12/25 05:27:26;;;;;;;0.57;0.55;;;17.90;39.30;;;;;;5099785;28;20180;-85
2021/12/25 05:29:57;;;;;;;0.63;0.55;;;17.90;39.30;;;;;;5099190;28;20261;-84
2021/12/25 05:32:22;;;;;;;0.50;0.50;;;17.90;39.40;;;;;;5099183;28;20157;-85
2021/12/25 05:34:48;;;;;;;0.70;0.52;;;17.90;39.50;;;;;;5099415;28;20166;-85
2021/12/25 05:37:14;;;;;;;0.50;0.50;;;17.90;39.40;;;;;;5099454;28;20215;-84
2021/12/25 05:39:43;;;;;;;0.60;0.50;;;17.80;39.60;;;;;;5099361;28;20243;-85
2021/12/25 05:42:08;;;;;;;0.60;0.60;;;17.70;39.40;;;;;;5099562;28;20221;-84
2021/12/25 05:44:34;;;;;;;0.50;0.50;;;17.80;39.60;;;;;;5098932;28;20171;-84
2021/12/25 05:47:01;;;;;;;0.55;0.50;;;17.80;39.40;;;;;;5133068;27;20219;-85
2021/12/25 05:49:29;;;;;;;0.75;0.50;;;17.90;39.60;;;;;;5133134;27;20206;-84
2021/12/25 05:51:54;;;;;;;0.60;0.57;;;17.90;39.40;;;;;;5098753;28;20160;-84
2021/12/25 05:54:20;;;;;;;0.57;0.55;;;17.90;40.10;;;;;;5115732;28;20152;-85
2021/12/25 05:56:47;;;;;;;0.47;0.47;;;17.90;39.40;;;;;;5115575;28;20235;-84
2021/12/25 05:59:13;;;;;;;0.50;0.40;;;17.90;39.30;;;;;;5115824;28;20222;-84
2021/12/25 06:01:39;;;;;;;0.50;0.50;;;17.80;39.20;;;;;;5115694;28;20202;-84
2021/12/25 06:04:07;;;;;;;0.45;0.45;;;17.80;39.40;;;;;;5115632;28;20566;-84
2021/12/25 06:06:33;;;;;;;0.50;0.45;;;17.80;39.50;;;;;;5115301;28;20156;-84
2021/12/25 06:08:59;;;;;;;0.60;0.60;;;17.90;39.40;;;;;;5098360;28;20212;-85
2021/12/25 06:11:25;;;;;;;0.30;0.30;;;17.80;39.40;;;;;;5115242;28;20156;-85
2021/12/25 06:13:58;;;;;;;0.32;0.32;;;17.80;39.40;;;;;;5132811;27;20167;-85
2021/12/25 06:16:25;;;;;;;0.55;0.50;;;17.80;39.50;;;;;;5115510;28;20144;-84
2021/12/25 06:18:52;;;;;;;0.73;0.50;;;17.80;39.60;;;;;;5115510;28;20164;-85
2021/12/25 06:21:17;;;;;;;0.50;0.50;;;17.80;39.40;;;;;;5115168;28;20272;-85
2021/12/25 06:23:44;;;;;;;0.65;0.50;;;17.90;39.40;;;;;;5098689;28;20160;-84
2021/12/25 06:26:09;;;;;;;0.50;0.50;;;17.80;39.40;;;;;;5131948;27;20625;-85
2021/12/25 06:28:35;;;;;;;0.50;0.50;;;17.80;39.50;;;;;;5097856;28;20196;-84
2021/12/25 06:31:01;;;;;;;0.50;0.50;;;17.90;39.20;;;;;;5115113;28;20525;-84
2021/12/25 06:33:29;;;;;;;0.50;0.50;;;17.90;39.30;;;;;;5114917;28;20156;-85
2021/12/25 06:35:56;;;;;;;0.55;0.52;;;17.90;39.30;;;;;;5115036;28;20162;-84
2021/12/25 06:38:21;;;;;;;0.60;0.50;;;17.80;39.40;;;;;;5097644;28;20171;-85
2021/12/25 06:40:47;;;;;;;0.47;0.40;;;17.90;39.30;;;;;;5115401;28;20160;-85
2021/12/25 06:43:14;;;;;;;0.40;0.40;;;17.80;39.10;;;;;;5115035;28;20160;-84
2021/12/25 06:45:41;;;;;;;0.50;0.50;;;17.90;39.30;;;;;;5121768;27;20216;-85
2021/12/25 06:48:08;;;;;;;0.35;0.35;;;17.80;39.30;;;;;;5114524;28;20230;-84
2021/12/25 06:50:36;;;;;;;0.50;0.50;;;17.80;39.30;;;;;;5114044;28;20163;-84
2021/12/25 06:53:02;;;;;;;0.47;0.47;;;17.80;39.30;;;;;;5114587;28;20180;-85
2021/12/25 06:55:28;;;;;;;0.40;0.40;;;17.90;39.20;;;;;;5115918;28;20188;-84
2021/12/25 06:57:55;;;;;;;0.82;0.60;;;17.80;39.30;;;;;;5131550;27;20508;-84
2021/12/25 07:00:22;;;;;;;0.57;0.47;;;17.70;39.40;;;;;;5132109;27;20498;-84
2021/12/25 07:02:48;;;;;;;0.50;0.50;;;17.80;39.40;;;;;;5132057;27;20171;-84
2021/12/25 07:05:14;;;;;;;1.02;0.52;;;17.80;39.20;;;;;;5131493;27;20200;-85
2021/12/25 07:07:40;;;;;;;0.50;0.50;;;17.80;39.40;;;;;;5131778;27;20188;-84
2021/12/25 07:10:08;;;;;;;0.50;0.50;;;17.80;39.50;;;;;;5114326;28;20183;-85
2021/12/25 07:12:37;;;;;;;0.50;0.50;;;17.80;39.40;;;;;;5131340;27;20166;-84
2021/12/25 07:15:05;;;;;;;0.60;0.60;;;17.80;39.40;;;;;;5131058;27;20187;-85
2021/12/25 07:17:31;;;;;;;0.38;0.38;;;17.80;39.40;;;;;;5114013;27;20203;-84
2021/12/25 07:19:58;;;;;;;0.52;0.43;;;17.70;39.30;;;;;;5131387;27;20164;-84
2021/12/25 07:22:23;;;;;;;0.80;0.52;;;17.70;39.10;;;;;;5115135;28;20145;-84
2021/12/25 07:24:50;;;;;;;0.50;0.50;;;17.80;39.10;;;;;;5114274;28;20183;-85
2021/12/25 07:27:16;;;;;;;0.50;0.47;;;17.70;39.00;;;;;;5114094;28;20191;-85
2021/12/25 07:29:42;;;;;;;0.50;0.50;;;17.90;38.90;;;;;;5113874;28;20155;-84
2021/12/25 07:32:09;;;;;;;0.50;0.50;;;17.90;39.20;;;;;;5113693;28;20165;-84
2021/12/25 07:34:36;;;;;;;0.93;0.60;;;17.90;39.00;;;;;;5113683;28;20149;-84
2021/12/25 07:37:03;;;;;;;0.70;0.55;;;17.90;39.00;;;;;;5130743;27;20618;-84
2021/12/25 07:39:30;;;;;;;0.45;0.45;;;17.90;38.90;;;;;;5113623;28;20533;-84
2021/12/25 07:41:56;;;;;;;0.55;0.50;;;17.90;38.90;;;;;;5113671;28;20163;-84
2021/12/25 07:44:22;;;;;;;0.50;0.50;;;18.00;38.90;;;;;;5113486;28;20163;-84
2021/12/25 07:46:49;;;;;;;0.57;0.40;;;18.00;38.80;;;;;;5113420;27;20584;-85
2021/12/25 07:49:19;;;;;;;0.73;0.60;;;18.00;38.40;;;;;;5113645;28;20254;-85
2021/12/25 07:51:45;;;;;;;0.35;0.30;;;18.10;38.50;;;;;;5113183;28;20175;-84
2021/12/25 07:54:12;;;;;;;0.40;0.40;;;18.00;38.20;;;;;;5113503;28;20179;-84
2021/12/25 07:56:37;;;;;;;0.52;0.47;;;18.10;38.20;;;;;;5113173;28;20144;-84
2021/12/25 07:59:04;;;;;;;0.80;0.60;;;18.20;38.50;;;;;;5112926;28;20175;-84
2021/12/25 08:01:31;;;;;;;0.57;0.57;;;18.10;38.20;;;;;;5112289;28;20140;-85
2021/12/25 08:03:56;;;;;;;0.63;0.60;;;18.10;37.90;;;;;;5095977;28;20263;-84
2021/12/25 08:06:22;;;;;;;0.57;0.57;;;18.20;37.80;;;;;;5096019;28;20199;-85
2021/12/25 08:08:50;;;;;;;0.60;0.40;;;18.20;37.80;;;;;;5112879;28;20194;-84
2021/12/25 08:11:17;;;;;;;0.38;0.38;;;18.20;37.80;;;;;;5114168;28;20141;-84
2021/12/25 08:13:43;;;;;;;0.70;0.65;;;18.20;37.80;;;;;;5113063;28;20152;-84
2021/12/25 08:16:09;;;;;;;0.70;0.50;;;18.20;37.70;;;;;;5130186;27;20562;-84
2021/12/25 08:18:34;;;;;;;0.47;0.47;;;18.20;37.70;;;;;;5129998;27;20493;-84
2021/12/25 08:21:04;;;;;;;0.57;0.40;;;18.20;37.80;;;;;;5095949;28;20255;-84
2021/12/25 08:23:30;;;;;;;0.43;0.43;;;18.20;37.50;;;;;;5112908;28;20489;-84
2021/12/25 08:25:56;;;;;;;0.65;0.60;;;18.30;37.60;;;;;;5129730;28;20227;-85
2021/12/25 08:28:23;;;;;;;0.45;0.45;;;18.30;38.10;;;;;;5112735;28;20669;-84
2021/12/25 08:30:51;;;;;;;0.65;0.50;;;18.30;37.40;;;;;;5095579;28;20216;-84
2021/12/25 08:33:21;;;;;;;0.47;0.47;;;18.30;37.30;;;;;;5113981;28;20162;-85
2021/12/25 08:35:46;;;;;;;0.50;0.50;;;18.30;37.10;;;;;;5130043;28;20245;-84
2021/12/25 08:38:13;;;;;;;0.32;0.32;;;18.40;37.40;;;;;;5112813;28;20183;-84
2021/12/25 08:40:39;;;;;;;0.40;0.40;;;18.30;37.40;;;;;;5112847;28;20172;-84
2021/12/25 08:43:06;;;;;;;0.40;0.40;;;18.20;37.20;;;;;;5112639;28;20163;-84
2021/12/25 08:45:49;;;;;;;0.40;0.40;;;18.30;37.20;;;;;;5106516;28;20230;-84
2021/12/25 08:48:17;;;;;;;0.45;0.45;;;18.40;37.20;;;;;;5098150;28;20187;-85
2021/12/25 08:50:48;;;;;;;0.50;0.50;;;18.30;37.30;;;;;;5096271;28;20255;-84
2021/12/25 08:53:14;;;;;;;0.40;0.40;;;18.40;37.30;;;;;;5095636;28;20202;-84
2021/12/25 08:55:39;;;;;;;1.33;0.43;;;18.40;36.90;;;;;;5095924;28;20614;-84
2021/12/25 08:58:07;;;;;;;0.38;0.38;;;18.40;37.20;;;;;;5095626;28;20164;-84
2021/12/25 09:00:33;;;;;;;0.52;0.52;;;18.40;36.80;;;;;;5095518;28;20156;-84
2021/12/25 09:02:58;;;;;;;0.95;0.43;;;18.40;36.80;;;;;;5112924;28;20580;-84
2021/12/25 09:05:24;;;;;;;0.52;0.50;;;18.40;37.00;;;;;;5095659;28;20606;-84
2021/12/25 09:07:50;;;;;;;0.45;0.38;;;18.40;37.10;;;;;;5095564;28;20202;-85
2021/12/25 09:10:16;;;;;;;0.40;0.40;;;18.40;36.90;;;;;;5095457;28;20214;-84
2021/12/25 09:12:43;;;;;;;0.50;0.47;;;18.40;36.70;;;;;;5096337;28;20160;-85
2021/12/25 09:15:10;;;;;;;0.47;0.47;;;18.40;37.10;;;;;;5117838;28;20575;-84
2021/12/25 09:17:35;;;;;;;1.42;0.43;;;18.40;37.20;;;;;;5099227;28;20172;-84
2021/12/25 09:20:01;;;;;;;1.33;0.45;;;18.40;36.80;;;;;;5099018;28;20529;-85
2021/12/25 09:22:27;;;;;;;0.73;0.40;;;18.40;36.80;;;;;;5099320;28;20195;-84
2021/12/25 09:24:52;;;;;;;0.50;0.50;;;18.40;36.80;;;;;;5099017;28;20160;-84
2021/12/25 09:27:18;;;;;;;0.40;0.40;;;18.40;36.70;;;;;;5098991;28;20180;-85
2021/12/25 09:29:47;;;;;;;0.30;0.30;;;18.40;36.80;;;;;;5099272;28;20571;-84
2021/12/25 09:32:13;;;;;;;0.68;0.57;;;18.50;36.80;;;;;;5099766;28;20210;-84
2021/12/25 09:34:39;;;;;;;0.50;0.50;;;18.50;36.80;;;;;;5099212;28;20231;-84
2021/12/25 09:37:06;;;;;;;0.40;0.40;;;18.50;36.60;;;;;;5099172;28;20167;-84
2021/12/25 09:39:33;;;;;;;0.45;0.45;;;18.50;36.70;;;;;;5098967;28;20251;-84
2021/12/25 09:41:59;;;;;;;0.30;0.30;;;18.50;36.60;;;;;;5099106;28;20158;-84
2021/12/25 09:44:25;;;;;;;0.50;0.50;;;18.50;36.60;;;;;;5098725;28;20251;-84
2021/12/25 09:46:52;;;;;;;0.63;0.50;;;18.50;36.60;;;;;;5098376;28;20374;-85
2021/12/25 09:49:17;;;;;;;0.50;0.40;;;18.50;36.60;;;;;;5099234;28;20244;-84
2021/12/25 09:51:43;;;;;;;0.40;0.40;;;18.50;36.50;;;;;;5098647;28;20184;-84
2021/12/25 09:54:10;;;;;;;0.45;0.40;;;18.50;36.60;;;;;;5116841;28;20148;-84
2021/12/25 09:56:38;;;;;;;0.50;0.50;;;18.50;36.60;;;;;;5098469;28;20511;-84
2021/12/25 09:59:05;;;;;;;0.50;0.35;;;18.50;36.60;;;;;;5098544;28;20155;-84
2021/12/25 10:01:36;;;;;;;0.40;0.40;;;18.50;36.60;;;;;;5098463;28;20197;-84
2021/12/25 10:04:07;;;;;;;0.88;0.40;;;18.50;36.50;;;;;;5098425;28;20517;-84
2021/12/25 10:06:34;;;;;;;0.43;0.40;;;18.50;36.60;;;;;;5081798;28;20242;-84
2021/12/25 10:09:11;;;;;;;0.47;0.47;;;18.60;36.60;;;;;;5098167;28;20645;-84
2021/12/25 10:11:53;;;;;;;0.40;0.40;;;18.60;36.50;;;;;;5098310;28;20255;-84
2021/12/25 10:14:19;;;;;;;0.98;0.50;;;18.50;36.50;;;;;;5098348;28;20155;-84
2021/12/25 10:16:45;;;;;;;0.85;0.40;;;18.50;36.50;;;;;;5098153;28;20152;-85
2021/12/25 10:19:13;;;;;;;0.77;0.50;;;18.50;36.20;;;;;;5098104;28;20311;-84
2021/12/25 10:21:40;;;;;;;0.32;0.32;;;18.60;36.50;;;;;;5098009;28;20171;-84
2021/12/25 10:24:26;;;;;;;0.30;0.30;;;18.60;36.40;;;;;;5097457;28;20546;-84
2021/12/25 10:26:52;;;;;;;1.05;0.50;;;18.60;36.60;;;;;;5100599;28;20156;-84
2021/12/25 10:29:21;;;;;;;0.40;0.40;;;18.60;36.40;;;;;;5097735;28;20159;-84
2021/12/25 10:31:47;;;;;;;0.38;0.38;;;18.60;36.30;;;;;;5097634;28;20626;-85
2021/12/25 10:34:15;;;;;;;0.40;0.40;;;18.60;36.40;;;;;;5098001;28;20160;-84
2021/12/25 10:36:41;;;;;;;0.45;0.45;;;18.60;36.20;;;;;;5098169;28;20202;-84
2021/12/25 10:39:11;;;;;;;0.47;0.45;;;18.50;36.20;;;;;;5097856;28;20144;-84
2021/12/25 10:41:39;;;;;;;0.40;0.40;;;18.60;35.80;;;;;;5097609;28;20617;-84
2021/12/25 10:44:26;;;;;;;0.50;0.50;;;18.60;36.40;;;;;;5097783;28;20156;-84
2021/12/25 10:46:58;;;;;;;0.50;0.50;;;18.60;36.20;;;;;;5097859;28;20172;-85
2021/12/25 10:49:30;;;;;;;0.50;0.40;;;18.60;36.30;;;;;;5098064;28;20148;-84
2021/12/25 10:52:13;;;;;;;0.73;0.40;;;18.60;36.30;;;;;;5097781;28;20155;-84
2021/12/25 10:54:46;;;;;;;0.40;0.40;;;18.60;36.30;;;;;;5097694;28;20164;-84
2021/12/25 10:57:32;;;;;;;0.70;0.40;;;18.60;36.20;;;;;;5097825;28;20167;-84
2021/12/25 10:59:58;;;;;;;0.70;0.50;;;18.60;36.60;;;;;;5098274;28;20171;-84
2021/12/25 11:02:32;;;;;;;0.40;0.40;;;18.60;36.30;;;;;;5097904;28;20168;-84
2021/12/25 11:04:58;;;;;;;0.90;0.50;;;18.60;36.30;;;;;;5097355;28;20159;-85
2021/12/25 11:07:25;;;;;;;0.40;0.40;;;18.60;36.10;;;;;;5098400;28;20215;-84
2021/12/25 11:10:07;;;;;;;0.70;0.50;;;18.60;36.30;;;;;;5098399;28;20247;-84
2021/12/25 11:12:32;;;;;;;0.40;0.40;;;18.60;36.20;;;;;;5097540;28;20239;-84
2021/12/25 11:15:11;;;;;;;0.22;0.20;;;18.60;36.50;;;;;;5098046;28;20263;-84
2021/12/25 11:17:39;;;;;;;0.30;0.30;;;18.60;36.20;;;;;;5097303;28;20231;-84
2021/12/25 11:20:05;;;;;;;1.38;0.50;;;18.60;36.40;;;;;;5097270;28;20171;-84
2021/12/25 11:22:48;;;;;;;0.63;0.45;;;18.60;35.90;;;;;;5097701;28;20160;-84
2021/12/25 11:25:14;;;;;;;0.32;0.30;;;18.70;36.20;;;;;;5097026;28;20182;-84
2021/12/25 11:27:40;;;;;;;0.55;0.32;;;18.60;36.20;;;;;;5096899;28;20196;-84
2021/12/25 11:30:07;;;;;;;1.00;0.40;;;18.60;35.80;;;;;;5096968;28;20176;-84
2021/12/25 11:32:33;;;;;;;0.30;0.30;;;18.60;35.80;;;;;;5096785;28;20171;-84
2021/12/25 11:34:58;;;;;;;0.60;0.45;;;18.70;35.90;;;;;;5097132;28;20612;-85
2021/12/25 11:37:26;;;;;;;1.73;0.50;;;18.60;36.50;;;;;;5096932;28;20255;-84
2021/12/25 11:39:52;;;;;;;0.30;0.30;;;18.70;36.10;;;;;;5097206;28;20156;-84
2021/12/25 11:42:19;;;;;;;0.40;0.40;;;18.70;35.80;;;;;;5097006;28;20231;-85
2021/12/25 11:44:49;;;;;;;0.40;0.40;;;18.60;36.00;;;;;;5097188;27;20171;-84
2021/12/25 11:47:31;;;;;;;0.65;0.50;;;18.70;36.60;;;;;;5097375;28;20183;-85
2021/12/25 11:49:58;;;;;;;1.42;0.50;;;18.70;36.00;;;;;;5097326;28;20506;-84
2021/12/25 11:52:29;;;;;;;0.50;0.40;;;18.70;36.20;;;;;;5096968;28;20174;-84
2021/12/25 11:55:16;;;;;;;0.50;0.50;;;18.70;36.10;;;;;;5097289;28;20707;-84
2021/12/25 11:57:50;;;;;;;0.47;0.47;;;18.70;36.10;;;;;;5096471;28;20298;-84
2021/12/25 12:00:37;;;;;;;1.95;0.43;;;18.70;35.90;;;;;;5098063;28;20163;-85
2021/12/25 12:03:03;;;;;;;0.50;0.50;;;18.70;36.10;;;;;;5096741;28;20179;-84
2021/12/25 12:05:31;;;;;;;0.60;0.45;;;18.70;35.80;;;;;;5096978;28;20210;-84
2021/12/25 12:08:08;;;;;;;0.38;0.30;;;18.60;36.10;;;;;;5096724;28;20202;-85
2021/12/25 12:10:49;;;;;;;0.50;0.32;;;18.70;35.70;;;;;;5096790;28;20159;-84
2021/12/25 12:13:28;;;;;;;0.47;0.40;;;18.70;36.20;;;;;;5113825;28;20156;-84
2021/12/25 12:15:56;;;;;;;1.45;0.40;;;18.70;36.10;;;;;;5096695;28;20198;-84
2021/12/25 12:18:34;;;;;;;0.80;0.40;;;18.70;35.80;;;;;;5096297;28;20182;-84
2021/12/25 12:21:09;;;;;;;0.40;0.40;;;18.60;35.80;;;;;;5096435;28;20570;-84
2021/12/25 12:23:52;;;;;;;0.63;0.50;;;18.70;35.90;;;;;;5097281;28;20180;-84
2021/12/25 12:26:53;;;;;;;0.35;0.35;;;18.70;35.70;;;;;;5098050;28;20191;-84
2021/12/25 12:29:42;;;;;;;0.35;0.32;;;18.70;36.00;;;;;;5113200;28;20168;-84
2021/12/25 12:32:32;;;;;;;0.65;0.50;;;18.70;35.80;;;;;;5096385;28;20239;-84
2021/12/25 12:34:58;;;;;;;1.80;0.50;;;18.70;35.80;;;;;;5096429;28;20518;-84
2021/12/25 12:37:27;;;;;;;0.40;0.40;;;18.70;36.10;;;;;;5096306;28;20163;-85
2021/12/25 12:40:18;;;;;;;0.40;0.40;;;18.70;35.90;;;;;;5096763;28;20610;-84
2021/12/25 12:42:50;;;;;;;0.50;0.50;;;18.70;35.80;;;;;;5096254;28;20554;-84
2021/12/25 12:45:20;;;;;;;0.32;0.32;;;18.80;36.10;;;;;;5103780;28;20310;-85
2021/12/25 12:48:13;;;;;;;0.35;0.35;;;18.70;35.80;;;;;;5117320;27;20206;-84
2021/12/25 12:50:41;;;;;;;0.40;0.40;;;18.70;35.80;;;;;;5139018;27;20147;-84
2021/12/25 12:53:09;;;;;;;0.70;0.40;;;18.70;35.70;;;;;;5120815;27;20152;-85
2021/12/25 12:55:39;;;;;;;0.40;0.40;;;18.70;35.70;;;;;;5121202;27;20147;-84
2021/12/25 12:58:08;;;;;;;0.40;0.40;;;18.70;35.80;;;;;;5120813;27;20151;-84
2021/12/25 13:00:35;;;;;;;0.40;0.40;;;18.70;35.80;;;;;;5120389;27;20163;-84
2021/12/25 13:03:01;;;;;;;0.50;0.50;;;18.70;35.90;;;;;;5119632;27;20171;-84
2021/12/25 13:05:34;;;;;;;0.50;0.40;;;18.80;35.70;;;;;;5120291;27;20155;-84
2021/12/25 13:08:01;;;;;;;0.50;0.40;;;18.70;35.60;;;;;;5120608;27;20195;-84
2021/12/25 13:10:38;;;;;;;0.40;0.30;;;18.80;35.60;;;;;;5120574;27;20171;-84
2021/12/25 13:13:20;;;;;;;0.30;0.30;;;18.80;35.80;;;;;;5121565;27;20216;-84
2021/12/25 13:15:48;;;;;;;0.63;0.32;;;18.80;35.70;;;;;;5120378;27;20162;-84
2021/12/25 13:18:15;;;;;;;0.40;0.40;;;18.80;35.70;;;;;;5120284;27;20258;-84
2021/12/25 13:20:44;;;;;;;0.50;0.50;;;18.70;35.70;;;;;;5120090;27;20174;-84
2021/12/25 13:23:16;;;;;;;0.65;0.50;;;18.80;35.80;;;;;;5120224;27;20159;-84
2021/12/25 13:25:50;;;;;;;0.98;0.40;;;18.80;35.50;;;;;;5119967;27;20174;-84
2021/12/25 13:28:15;;;;;;;0.50;0.50;;;18.80;35.80;;;;;;5120110;27;20193;-84
2021/12/25 13:30:43;;;;;;;0.40;0.40;;;18.80;35.60;;;;;;5119923;27;20171;-84
2021/12/25 13:33:10;;;;;;;0.40;0.40;;;18.80;35.70;;;;;;5120638;27;20617;-84
2021/12/25 13:35:36;;;;;;;0.40;0.40;;;18.80;35.70;;;;;;5120229;27;20198;-84
2021/12/25 13:38:02;;;;;;;0.50;0.50;;;18.80;35.60;;;;;;5120082;27;20187;-84
2021/12/25 13:40:28;;;;;;;0.43;0.40;;;18.80;35.50;;;;;;5119856;27;20156;-84
2021/12/25 13:42:53;;;;;;;0.50;0.50;;;18.80;35.50;;;;;;5119633;27;20212;-84
2021/12/25 13:45:20;;;;;;;0.45;0.45;;;18.80;35.80;;;;;;5112504;28;20580;-84
2021/12/25 13:47:46;;;;;;;0.55;0.55;;;18.80;35.60;;;;;;5099741;28;20197;-84
2021/12/25 13:50:13;;;;;;;0.57;0.30;;;18.70;35.40;;;;;;5099320;28;20164;-85
2021/12/25 13:52:40;;;;;;;1.23;0.38;;;18.80;35.50;;;;;;5099440;28;20149;-84